Time;durP1;ratioP1;P1;durP2;ratioP2;P2;SDS_P1;SDS_P2;PMS_P1;PMS_P2;Temp;Humidity;BMP_temperature;BMP_pressure;BME280_temperature;BME280_humidity;BME280_pressure;Samples;Min_cycle;Max_cycle;Signal;HPM_P1;HPM_P2
2023/09/26 00:01:32;;;;;;;13.35;8.40;;;;;;;;;;4996972;28;20061;-78
2023/09/26 00:03:58;;;;;;;13.93;8.75;;;;;;;;;;4985977;28;20046;-80
2023/09/26 00:06:25;;;;;;;11.95;8.40;;;;;;;;;;4980253;28;20462;-79
2023/09/26 00:08:54;;;;;;;12.02;8.18;;;;;;;;;;4998558;28;20062;-78
2023/09/26 00:11:21;;;;;;;12.68;8.38;;;;;;;;;;4998693;28;20042;-80
2023/09/26 00:13:50;;;;;;;10.75;8.13;;;;;;;;;;4998999;28;20046;-78
2023/09/26 00:16:16;;;;;;;11.30;8.13;;;;;;;;;;4995504;28;20042;-78
2023/09/26 00:18:43;;;;;;;12.50;8.25;;;;;;;;;;4998263;28;20497;-78
2023/09/26 00:21:10;;;;;;;11.70;8.38;;;;;;;;;;4987622;28;20041;-78
2023/09/26 00:23:36;;;;;;;11.40;8.15;;;;;;;;;;4994043;28;20046;-78
2023/09/26 00:26:04;;;;;;;14.70;8.63;;;;;;;;;;4998023;28;20049;-78
2023/09/26 00:28:30;;;;;;;10.43;8.35;;;;;;;;;;4999280;28;20046;-78
2023/09/26 00:30:56;;;;;;;11.00;8.43;;;;;;;;;;4998526;28;20046;-78
2023/09/26 00:33:23;;;;;;;12.48;8.75;;;;;;;;;;4991391;28;20066;-78
2023/09/26 00:35:49;;;;;;;12.48;8.13;;;;;;;;;;4996984;28;20054;-78
2023/09/26 00:38:15;;;;;;;13.25;8.70;;;;;;;;;;4998536;28;20052;-79
2023/09/26 00:40:42;;;;;;;11.88;8.63;;;;;;;;;;4996523;28;20547;-78
2023/09/26 00:43:09;;;;;;;13.18;9.48;;;;;;;;;;4997042;28;20045;-79
2023/09/26 00:45:35;;;;;;;11.23;8.55;;;;;;;;;;4983408;28;20051;-78
2023/09/26 00:48:05;;;;;;;11.73;8.65;;;;;;;;;;4980125;28;20074;-79
2023/09/26 00:50:31;;;;;;;11.52;9.07;;;;;;;;;;4990756;28;20046;-78
2023/09/26 00:52:58;;;;;;;12.38;9.18;;;;;;;;;;5001444;28;20058;-78
2023/09/26 00:55:24;;;;;;;12.60;9.20;;;;;;;;;;4997025;28;20050;-78
2023/09/26 00:57:50;;;;;;;12.30;8.90;;;;;;;;;;4980521;28;20170;-78
2023/09/26 01:00:21;;;;;;;11.65;9.25;;;;;;;;;;4988881;28;20045;-78
2023/09/26 01:02:48;;;;;;;11.80;9.20;;;;;;;;;;5000726;28;20053;-79
2023/09/26 01:05:14;;;;;;;11.02;9.40;;;;;;;;;;5000361;28;20560;-78
2023/09/26 01:07:40;;;;;;;11.70;9.30;;;;;;;;;;4990642;28;20038;-79
2023/09/26 01:10:13;;;;;;;13.52;9.57;;;;;;;;;;5111175;27;20893;-77
2023/09/26 01:12:40;;;;;;;11.35;9.40;;;;;;;;;;5103190;28;20052;-77
2023/09/26 01:15:07;;;;;;;13.32;9.50;;;;;;;;;;5090736;28;20045;-79
2023/09/26 01:17:33;;;;;;;13.13;9.15;;;;;;;;;;5090316;28;20045;-78
2023/09/26 01:20:14;;;;;;;15.73;9.13;;;;;;;;;;5090751;28;20696;-77
2023/09/26 01:22:42;;;;;;;12.75;8.88;;;;;;;;;;5100394;28;20057;-77
2023/09/26 01:25:09;;;;;;;14.02;9.65;;;;;;;;;;5096245;28;20197;-77
2023/09/26 01:27:35;;;;;;;11.35;9.20;;;;;;;;;;5101029;28;20044;-77
2023/09/26 01:30:01;;;;;;;16.83;9.23;;;;;;;;;;5108314;28;20050;-77
2023/09/26 01:32:27;;;;;;;12.88;9.52;;;;;;;;;;5100537;28;20035;-77
2023/09/26 01:34:54;;;;;;;11.55;9.75;;;;;;;;;;5105528;28;20048;-77
2023/09/26 01:37:20;;;;;;;13.88;9.55;;;;;;;;;;5091102;28;20414;-77
2023/09/26 01:39:46;;;;;;;13.82;8.50;;;;;;;;;;5072924;28;20394;-77
2023/09/26 01:42:12;;;;;;;12.13;8.82;;;;;;;;;;5107781;28;20451;-77
2023/09/26 01:44:38;;;;;;;10.30;8.30;;;;;;;;;;5097805;28;20052;-77
2023/09/26 01:47:04;;;;;;;10.10;8.32;;;;;;;;;;5096267;28;20036;-77
2023/09/26 01:49:31;;;;;;;11.43;8.43;;;;;;;;;;5089389;28;20040;-78
2023/09/26 01:51:57;;;;;;;13.20;8.20;;;;;;;;;;5096344;28;20040;-77
2023/09/26 01:54:23;;;;;;;12.77;9.27;;;;;;;;;;5090742;28;20040;-77
2023/09/26 01:56:49;;;;;;;12.55;9.27;;;;;;;;;;5115210;28;20414;-78
2023/09/26 01:59:15;;;;;;;11.30;8.90;;;;;;;;;;5116623;28;20055;-78
2023/09/26 02:01:41;;;;;;;12.00;9.35;;;;;;;;;;5098043;28;20413;-78
2023/09/26 02:04:07;;;;;;;11.70;8.80;;;;;;;;;;5113485;28;20112;-79
2023/09/26 02:06:33;;;;;;;12.75;9.15;;;;;;;;;;5097113;28;20043;-80
2023/09/26 02:08:59;;;;;;;10.05;8.75;;;;;;;;;;5099069;28;20515;-78
2023/09/26 02:11:26;;;;;;;11.85;8.60;;;;;;;;;;5095340;28;20074;-78
2023/09/26 02:13:52;;;;;;;11.20;8.82;;;;;;;;;;5095485;28;20055;-78
2023/09/26 02:16:18;;;;;;;14.93;9.02;;;;;;;;;;5107638;28;20406;-78
2023/09/26 02:18:44;;;;;;;11.93;9.20;;;;;;;;;;5105441;28;20043;-78
2023/09/26 02:21:16;;;;;;;10.32;8.73;;;;;;;;;;5084564;28;20106;-78
2023/09/26 02:23:42;;;;;;;11.38;8.80;;;;;;;;;;5087867;28;20047;-78
2023/09/26 02:26:08;;;;;;;11.13;8.93;;;;;;;;;;5087362;28;20040;-78
2023/09/26 02:28:34;;;;;;;12.38;9.00;;;;;;;;;;5087628;28;20043;-78
2023/09/26 02:31:01;;;;;;;10.68;9.38;;;;;;;;;;5102249;28;20051;-78
2023/09/26 02:33:27;;;;;;;11.55;9.27;;;;;;;;;;5099945;28;20069;-78
2023/09/26 02:35:53;;;;;;;12.50;9.10;;;;;;;;;;5085174;28;20058;-78
2023/09/26 02:38:19;;;;;;;13.65;8.95;;;;;;;;;;5091443;28;20044;-78
2023/09/26 02:40:45;;;;;;;12.60;9.38;;;;;;;;;;5082602;28;20048;-78
2023/09/26 02:43:11;;;;;;;14.95;9.55;;;;;;;;;;5080907;28;20098;-78
2023/09/26 02:45:37;;;;;;;12.90;9.70;;;;;;;;;;5091094;28;20044;-78
2023/09/26 02:48:04;;;;;;;13.70;10.15;;;;;;;;;;5088626;28;20040;-78
2023/09/26 02:50:30;;;;;;;10.45;9.35;;;;;;;;;;5098521;28;20040;-78
2023/09/26 02:52:57;;;;;;;14.30;9.90;;;;;;;;;;5086873;28;20086;-78
2023/09/26 02:55:23;;;;;;;11.82;9.80;;;;;;;;;;5100207;28;20044;-78
2023/09/26 02:57:49;;;;;;;11.27;10.07;;;;;;;;;;5098549;28;20051;-78
2023/09/26 03:00:16;;;;;;;13.05;9.90;;;;;;;;;;5102337;28;20044;-78
2023/09/26 03:02:44;;;;;;;12.93;9.35;;;;;;;;;;5086661;28;20048;-78
2023/09/26 03:05:10;;;;;;;11.73;9.55;;;;;;;;;;5081247;28;20048;-78
2023/09/26 03:07:37;;;;;;;12.65;10.23;;;;;;;;;;5078352;28;20052;-78
2023/09/26 03:10:03;;;;;;;13.13;10.13;;;;;;;;;;5078990;28;20091;-78
2023/09/26 03:12:29;;;;;;;13.20;9.82;;;;;;;;;;5079310;28;20098;-79
2023/09/26 03:14:56;;;;;;;13.07;11.23;;;;;;;;;;5077997;28;20052;-78
2023/09/26 03:17:22;;;;;;;12.52;10.70;;;;;;;;;;5080286;28;20037;-78
2023/09/26 03:19:48;;;;;;;15.38;10.10;;;;;;;;;;5080081;28;20087;-78
2023/09/26 03:22:14;;;;;;;12.45;10.75;;;;;;;;;;5084360;28;20044;-78
2023/09/26 03:24:40;;;;;;;13.32;11.27;;;;;;;;;;5088881;28;20044;-77
2023/09/26 03:27:06;;;;;;;14.80;11.55;;;;;;;;;;5077170;28;20053;-78
2023/09/26 03:29:32;;;;;;;11.73;10.23;;;;;;;;;;5077425;28;20510;-78
2023/09/26 03:31:58;;;;;;;14.60;10.77;;;;;;;;;;5092773;28;20051;-78
2023/09/26 03:34:24;;;;;;;11.82;10.50;;;;;;;;;;5098859;28;20486;-78
2023/09/26 03:36:50;;;;;;;16.38;11.00;;;;;;;;;;5093652;28;20048;-78
2023/09/26 03:39:16;;;;;;;12.43;11.13;;;;;;;;;;5085743;28;20102;-78
2023/09/26 03:41:43;;;;;;;14.20;10.55;;;;;;;;;;5091725;28;20043;-78
2023/09/26 03:44:09;;;;;;;12.88;10.95;;;;;;;;;;5088209;28;20052;-78
2023/09/26 03:46:35;;;;;;;12.63;10.65;;;;;;;;;;5074044;28;20455;-79
2023/09/26 03:49:02;;;;;;;13.68;10.90;;;;;;;;;;5089019;28;20081;-77
2023/09/26 03:51:28;;;;;;;12.52;10.95;;;;;;;;;;5091802;28;20040;-78
2023/09/26 03:53:54;;;;;;;16.45;11.02;;;;;;;;;;5086339;28;20044;-78
2023/09/26 03:56:20;;;;;;;12.75;10.35;;;;;;;;;;5083550;28;20052;-78
2023/09/26 03:58:46;;;;;;;14.00;10.68;;;;;;;;;;5079180;28;20048;-78
2023/09/26 04:01:16;;;;;;;12.55;10.27;;;;;;;;;;5076978;28;20048;-78
2023/09/26 04:03:48;;;;;;;11.82;10.27;;;;;;;;;;5086285;28;20051;-78
2023/09/26 04:06:14;;;;;;;13.32;11.10;;;;;;;;;;5083488;28;20498;-77
2023/09/26 04:08:40;;;;;;;13.40;11.18;;;;;;;;;;5076837;28;20060;-77
2023/09/26 04:11:12;;;;;;;16.95;11.45;;;;;;;;;;5080626;28;20048;-77
2023/09/26 04:13:38;;;;;;;13.00;10.55;;;;;;;;;;5079055;28;20482;-78
2023/09/26 04:16:05;;;;;;;14.02;10.73;;;;;;;;;;5089714;28;20043;-78
2023/09/26 04:18:31;;;;;;;11.88;10.63;;;;;;;;;;5076064;28;20044;-78
2023/09/26 04:21:01;;;;;;;14.93;11.15;;;;;;;;;;5078361;28;20051;-78
2023/09/26 04:23:27;;;;;;;13.88;11.80;;;;;;;;;;5083704;28;20044;-79
2023/09/26 04:25:54;;;;;;;12.35;10.85;;;;;;;;;;5079098;28;20113;-78
2023/09/26 04:28:20;;;;;;;14.68;11.52;;;;;;;;;;5075085;28;20084;-78
2023/09/26 04:30:46;;;;;;;13.13;11.60;;;;;;;;;;5082488;28;20093;-78
2023/09/26 04:33:12;;;;;;;12.90;11.15;;;;;;;;;;5078073;28;20099;-77
2023/09/26 04:35:38;;;;;;;15.73;11.98;;;;;;;;;;5075287;28;20052;-77
2023/09/26 04:38:04;;;;;;;14.10;11.68;;;;;;;;;;5075789;28;20135;-78
2023/09/26 04:40:31;;;;;;;14.38;12.20;;;;;;;;;;5079069;28;20094;-78
2023/09/26 04:43:01;;;;;;;16.48;12.45;;;;;;;;;;5083825;28;20043;-78
2023/09/26 04:45:33;;;;;;;17.02;12.07;;;;;;;;;;5086866;28;20047;-77
2023/09/26 04:48:02;;;;;;;13.77;11.25;;;;;;;;;;5075556;28;20049;-78
2023/09/26 04:50:29;;;;;;;15.25;11.45;;;;;;;;;;5075470;28;20074;-78
2023/09/26 04:52:56;;;;;;;14.55;11.23;;;;;;;;;;5078814;28;20039;-78
2023/09/26 04:55:22;;;;;;;12.48;11.10;;;;;;;;;;5077725;28;20157;-79
2023/09/26 04:57:48;;;;;;;13.25;11.73;;;;;;;;;;5074887;28;20380;-77
2023/09/26 05:00:17;;;;;;;12.88;11.48;;;;;;;;;;5074279;28;20434;-78
2023/09/26 05:02:47;;;;;;;14.55;11.75;;;;;;;;;;5074707;28;20040;-77
2023/09/26 05:05:13;;;;;;;13.07;11.70;;;;;;;;;;5075476;28;20051;-77
2023/09/26 05:07:43;;;;;;;15.38;12.05;;;;;;;;;;5061570;28;20096;-78
2023/09/26 05:10:10;;;;;;;15.93;12.20;;;;;;;;;;5094912;28;20105;-78
2023/09/26 05:12:40;;;;;;;14.02;11.88;;;;;;;;;;5076350;28;20051;-78
2023/09/26 05:15:07;;;;;;;15.43;12.43;;;;;;;;;;5092312;28;20040;-78
2023/09/26 05:17:33;;;;;;;19.38;12.00;;;;;;;;;;5100248;28;20148;-77
2023/09/26 05:19:59;;;;;;;15.10;12.07;;;;;;;;;;5093157;28;20044;-78
2023/09/26 05:22:25;;;;;;;15.38;11.63;;;;;;;;;;5083282;28;20048;-79
2023/09/26 05:24:51;;;;;;;14.60;11.85;;;;;;;;;;5072327;28;20045;-78
2023/09/26 05:27:17;;;;;;;13.18;10.88;;;;;;;;;;5073676;28;20058;-77
2023/09/26 05:29:43;;;;;;;12.77;11.25;;;;;;;;;;5077967;28;20498;-77
2023/09/26 05:32:09;;;;;;;13.65;12.10;;;;;;;;;;5082128;28;20089;-77
2023/09/26 05:34:35;;;;;;;16.13;11.90;;;;;;;;;;5089186;28;20055;-77
2023/09/26 05:37:02;;;;;;;13.88;12.20;;;;;;;;;;5084396;28;20121;-77
2023/09/26 05:39:28;;;;;;;13.00;11.60;;;;;;;;;;5075807;28;20091;-77
2023/09/26 05:41:54;;;;;;;13.68;12.05;;;;;;;;;;5089501;28;20048;-77
2023/09/26 05:44:20;;;;;;;13.13;11.73;;;;;;;;;;5083485;28;20055;-77
2023/09/26 05:46:46;;;;;;;14.38;11.30;;;;;;;;;;5086969;28;20052;-78
2023/09/26 05:49:12;;;;;;;16.23;12.25;;;;;;;;;;5076722;28;20506;-78
2023/09/26 05:51:38;;;;;;;15.45;12.13;;;;;;;;;;5085836;28;20517;-78
2023/09/26 05:54:04;;;;;;;14.20;11.63;;;;;;;;;;5087535;28;20072;-77
2023/09/26 05:56:30;;;;;;;14.57;11.45;;;;;;;;;;5089454;28;20044;-77
2023/09/26 05:58:56;;;;;;;12.88;11.40;;;;;;;;;;5075118;28;20432;-77
2023/09/26 06:01:22;;;;;;;14.77;11.52;;;;;;;;;;5089520;28;20110;-78
2023/09/26 06:03:48;;;;;;;15.20;11.43;;;;;;;;;;5082017;28;20059;-77
2023/09/26 06:06:14;;;;;;;13.77;11.38;;;;;;;;;;5078376;28;20047;-78
2023/09/26 06:08:40;;;;;;;15.35;11.82;;;;;;;;;;5076096;28;20098;-77
2023/09/26 06:11:07;;;;;;;16.48;11.85;;;;;;;;;;5091272;28;20075;-77
2023/09/26 06:13:33;;;;;;;14.02;11.65;;;;;;;;;;5082938;28;20471;-77
2023/09/26 06:15:59;;;;;;;14.52;12.23;;;;;;;;;;5076650;28;20182;-78
2023/09/26 06:18:25;;;;;;;16.15;11.40;;;;;;;;;;5094698;28;20055;-78
2023/09/26 06:20:52;;;;;;;14.05;12.07;;;;;;;;;;5097158;28;20248;-78
2023/09/26 06:23:18;;;;;;;15.35;12.20;;;;;;;;;;5086842;28;20522;-78
2023/09/26 06:25:44;;;;;;;17.45;13.45;;;;;;;;;;5076669;28;20048;-79
2023/09/26 06:28:10;;;;;;;16.20;12.32;;;;;;;;;;5089381;28;20047;-78
2023/09/26 06:30:36;;;;;;;16.60;13.05;;;;;;;;;;5105088;28;20039;-79
2023/09/26 06:33:02;;;;;;;14.70;12.02;;;;;;;;;;5090569;28;20513;-80
2023/09/26 06:35:31;;;;;;;16.77;12.23;;;;;;;;;;5094906;28;20072;-78
2023/09/26 06:37:57;;;;;;;16.02;12.10;;;;;;;;;;5077644;28;20048;-78
2023/09/26 06:40:23;;;;;;;14.35;12.23;;;;;;;;;;5096450;28;20041;-79
2023/09/26 06:42:49;;;;;;;15.13;12.48;;;;;;;;;;5092455;28;20052;-79
2023/09/26 06:45:15;;;;;;;12.60;11.27;;;;;;;;;;5069881;28;20047;-78
2023/09/26 06:47:41;;;;;;;15.40;10.93;;;;;;;;;;5089268;28;20044;-79
2023/09/26 06:50:10;;;;;;;13.15;10.73;;;;;;;;;;5096829;28;20131;-78
2023/09/26 06:52:36;;;;;;;13.85;11.45;;;;;;;;;;5078274;28;20463;-78
2023/09/26 06:55:09;;;;;;;14.50;10.77;;;;;;;;;;5097154;28;20180;-78
2023/09/26 06:57:35;;;;;;;12.45;10.60;;;;;;;;;;5090611;28;20110;-79
2023/09/26 07:00:05;;;;;;;14.23;11.55;;;;;;;;;;5083440;28;20044;-78
2023/09/26 07:02:31;;;;;;;15.15;11.75;;;;;;;;;;5084773;28;20044;-78
2023/09/26 07:04:57;;;;;;;14.75;10.73;;;;;;;;;;5086821;28;20071;-80
2023/09/26 07:07:23;;;;;;;12.85;11.38;;;;;;;;;;5081654;28;20143;-79
2023/09/26 07:09:50;;;;;;;12.45;11.05;;;;;;;;;;5082665;28;20501;-79
2023/09/26 07:12:17;;;;;;;12.88;11.00;;;;;;;;;;5079570;28;20048;-78
2023/09/26 07:14:43;;;;;;;15.15;11.90;;;;;;;;;;5075545;28;20133;-79
2023/09/26 07:17:09;;;;;;;14.10;11.60;;;;;;;;;;5082278;28;20054;-78
2023/09/26 07:19:35;;;;;;;12.57;10.55;;;;;;;;;;5078471;28;20131;-79
2023/09/26 07:22:01;;;;;;;11.93;10.70;;;;;;;;;;5082881;28;20075;-78
2023/09/26 07:24:27;;;;;;;13.38;10.98;;;;;;;;;;5082743;28;20094;-80
2023/09/26 07:26:53;;;;;;;13.48;10.40;;;;;;;;;;5090681;28;20399;-79
2023/09/26 07:29:19;;;;;;;13.65;11.27;;;;;;;;;;5078324;28;20055;-78
2023/09/26 07:31:46;;;;;;;11.80;10.45;;;;;;;;;;5060238;28;20044;-75
2023/09/26 07:34:12;;;;;;;13.85;10.73;;;;;;;;;;5085892;28;20123;-75
2023/09/26 07:36:39;;;;;;;13.40;10.70;;;;;;;;;;5074577;28;20093;-74
2023/09/26 07:39:05;;;;;;;12.02;10.57;;;;;;;;;;5077923;28;20042;-75
2023/09/26 07:41:31;;;;;;;13.00;10.98;;;;;;;;;;5083631;28;20048;-74
2023/09/26 07:43:58;;;;;;;15.75;10.00;;;;;;;;;;5084417;28;20495;-74
2023/09/26 07:46:24;;;;;;;16.63;11.15;;;;;;;;;;5091514;28;20792;-74
2023/09/26 07:48:50;;;;;;;11.45;9.85;;;;;;;;;;5089329;28;20037;-74
2023/09/26 07:51:17;;;;;;;11.77;10.57;;;;;;;;;;5072805;28;20048;-74
2023/09/26 07:53:43;;;;;;;13.57;10.70;;;;;;;;;;5088330;28;20157;-74
2023/09/26 07:56:10;;;;;;;17.52;11.55;;;;;;;;;;5082615;28;20052;-74
2023/09/26 07:58:36;;;;;;;12.32;9.88;;;;;;;;;;5082538;28;20502;-74
2023/09/26 08:01:06;;;;;;;12.82;10.65;;;;;;;;;;5079438;28;20221;-76
2023/09/26 08:03:33;;;;;;;13.60;10.27;;;;;;;;;;5073349;28;20558;-74
2023/09/26 08:06:02;;;;;;;13.85;11.55;;;;;;;;;;5076172;28;20032;-76
2023/09/26 08:08:29;;;;;;;14.10;10.15;;;;;;;;;;5093410;28;20055;-75
2023/09/26 08:10:56;;;;;;;13.40;10.80;;;;;;;;;;5091535;28;20056;-74
2023/09/26 08:13:22;;;;;;;12.57;9.82;;;;;;;;;;5083549;28;20075;-74
2023/09/26 08:15:48;;;;;;;12.88;11.15;;;;;;;;;;5081649;28;20112;-76
2023/09/26 08:18:14;;;;;;;14.57;10.75;;;;;;;;;;5090546;28;20416;-75
2023/09/26 08:20:41;;;;;;;11.50;10.07;;;;;;;;;;5073311;28;20045;-74
2023/09/26 08:23:07;;;;;;;13.68;10.05;;;;;;;;;;5075951;28;20040;-74
2023/09/26 08:25:34;;;;;;;13.32;10.07;;;;;;;;;;5074783;28;20498;-75
2023/09/26 08:28:01;;;;;;;12.68;10.32;;;;;;;;;;5080702;28;20140;-74
2023/09/26 08:30:27;;;;;;;13.52;10.55;;;;;;;;;;5081908;28;20053;-76
2023/09/26 08:32:54;;;;;;;11.70;9.60;;;;;;;;;;5073579;28;20124;-74
2023/09/26 08:35:20;;;;;;;15.73;9.40;;;;;;;;;;5072677;28;20052;-73
2023/09/26 08:37:46;;;;;;;12.00;9.82;;;;;;;;;;5080627;28;20044;-76
2023/09/26 08:40:12;;;;;;;10.95;9.57;;;;;;;;;;5075724;28;20426;-74
2023/09/26 08:42:40;;;;;;;12.13;10.10;;;;;;;;;;5090685;28;20500;-73
2023/09/26 08:45:07;;;;;;;12.40;10.13;;;;;;;;;;5076531;28;20119;-74
2023/09/26 08:47:35;;;;;;;14.55;10.68;;;;;;;;;;5076188;28;20037;-73
2023/09/26 08:50:02;;;;;;;12.90;10.05;;;;;;;;;;5092578;28;20048;-73
2023/09/26 08:52:28;;;;;;;10.85;9.15;;;;;;;;;;5083735;28;20047;-74
2023/09/26 08:54:54;;;;;;;11.05;9.60;;;;;;;;;;5078750;28;20419;-74
2023/09/26 08:57:20;;;;;;;12.10;10.10;;;;;;;;;;5076658;28;20047;-75
2023/09/26 08:59:47;;;;;;;12.15;9.48;;;;;;;;;;5072616;28;20080;-75
2023/09/26 09:02:13;;;;;;;12.30;10.13;;;;;;;;;;5079470;28;20603;-74
2023/09/26 09:04:43;;;;;;;11.90;9.38;;;;;;;;;;5076213;28;20101;-75
2023/09/26 09:07:10;;;;;;;11.18;9.15;;;;;;;;;;5078210;28;20040;-74
2023/09/26 09:09:36;;;;;;;12.98;9.57;;;;;;;;;;5072194;28;20060;-74
2023/09/26 09:12:03;;;;;;;12.23;9.20;;;;;;;;;;5087966;28;20052;-74
2023/09/26 09:14:33;;;;;;;11.73;9.10;;;;;;;;;;5080092;28;20062;-76
2023/09/26 09:16:59;;;;;;;11.48;8.75;;;;;;;;;;5082139;28;20069;-74
2023/09/26 09:19:48;;;;;;;12.65;9.45;;;;;;;;;;5071994;28;20738;-74
2023/09/26 09:22:18;;;;;;;10.95;9.07;;;;;;;;;;5072508;28;20461;-73
2023/09/26 09:24:44;;;;;;;12.13;9.33;;;;;;;;;;5087216;28;20431;-74
2023/09/26 09:27:10;;;;;;;14.18;9.00;;;;;;;;;;5071393;28;20345;-74
2023/09/26 09:29:36;;;;;;;12.75;8.93;;;;;;;;;;5070462;28;20452;-74
2023/09/26 09:32:03;;;;;;;11.00;8.68;;;;;;;;;;5076507;28;20127;-75
2023/09/26 09:34:29;;;;;;;12.65;8.80;;;;;;;;;;5083341;28;20048;-74
2023/09/26 09:36:58;;;;;;;14.70;9.02;;;;;;;;;;5084624;28;20040;-74
2023/09/26 09:39:25;;;;;;;12.77;9.23;;;;;;;;;;5088156;28;20058;-74
2023/09/26 09:41:57;;;;;;;10.63;8.90;;;;;;;;;;5074261;28;20033;-74
2023/09/26 09:44:24;;;;;;;12.73;8.30;;;;;;;;;;5090355;28;20504;-74
2023/09/26 09:46:52;;;;;;;10.27;8.30;;;;;;;;;;5094755;28;20491;-75
2023/09/26 09:49:19;;;;;;;11.80;8.27;;;;;;;;;;5085024;28;20123;-74
2023/09/26 09:51:46;;;;;;;13.32;8.15;;;;;;;;;;5075387;28;20052;-74
2023/09/26 09:54:13;;;;;;;11.70;8.93;;;;;;;;;;5075333;28;20102;-74
2023/09/26 09:56:39;;;;;;;9.95;8.05;;;;;;;;;;5083971;28;20431;-74
2023/09/26 09:59:12;;;;;;;12.80;8.50;;;;;;;;;;5084415;28;20079;-75
2023/09/26 10:01:43;;;;;;;13.27;8.25;;;;;;;;;;5077918;28;20044;-74
2023/09/26 10:04:10;;;;;;;12.48;8.45;;;;;;;;;;5092628;28;20059;-74
2023/09/26 10:06:36;;;;;;;10.98;7.80;;;;;;;;;;5095659;28;20047;-75
2023/09/26 10:09:03;;;;;;;10.93;8.23;;;;;;;;;;5080831;28;20067;-74
2023/09/26 10:11:30;;;;;;;10.07;7.55;;;;;;;;;;5091961;28;20055;-74
2023/09/26 10:13:58;;;;;;;10.88;7.82;;;;;;;;;;5080606;28;20494;-74
2023/09/26 10:16:25;;;;;;;10.32;8.10;;;;;;;;;;5078447;28;20052;-74
2023/09/26 10:18:51;;;;;;;9.70;8.18;;;;;;;;;;5074031;28;20408;-75
2023/09/26 10:21:21;;;;;;;12.85;7.80;;;;;;;;;;5074481;28;20540;-75
2023/09/26 10:24:05;;;;;;;9.90;7.85;;;;;;;;;;5089631;28;20494;-73
2023/09/26 10:26:32;;;;;;;9.73;8.13;;;;;;;;;;5078467;28;20101;-74
2023/09/26 10:29:07;;;;;;;10.07;7.40;;;;;;;;;;5081855;28;20623;-74
2023/09/26 10:31:33;;;;;;;11.52;7.88;;;;;;;;;;5085530;28;20486;-74
2023/09/26 10:34:01;;;;;;;9.80;7.55;;;;;;;;;;5094867;28;20038;-75
2023/09/26 10:36:29;;;;;;;11.27;7.72;;;;;;;;;;5075311;28;20043;-74
2023/09/26 10:39:00;;;;;;;10.02;8.00;;;;;;;;;;5091633;28;20055;-74
2023/09/26 10:41:27;;;;;;;10.95;8.13;;;;;;;;;;5074441;28;20230;-74
2023/09/26 10:43:54;;;;;;;9.93;7.50;;;;;;;;;;5074903;28;20051;-74
2023/09/26 10:46:20;;;;;;;10.07;7.70;;;;;;;;;;5074600;28;20086;-74
2023/09/26 10:48:46;;;;;;;10.77;8.00;;;;;;;;;;5074695;28;20048;-74
2023/09/26 10:51:12;;;;;;;11.10;7.90;;;;;;;;;;5076867;28;20063;-74
2023/09/26 10:53:38;;;;;;;12.32;7.15;;;;;;;;;;5086518;28;20048;-74
2023/09/26 10:56:04;;;;;;;9.32;7.00;;;;;;;;;;5075034;28;20053;-76
2023/09/26 10:58:34;;;;;;;9.98;7.07;;;;;;;;;;5074468;28;20044;-74
2023/09/26 11:01:00;;;;;;;8.93;7.00;;;;;;;;;;5074255;28;20537;-74
2023/09/26 11:03:26;;;;;;;10.10;7.03;;;;;;;;;;5073799;28;20502;-74
2023/09/26 11:05:52;;;;;;;16.35;7.60;;;;;;;;;;5085043;28;20040;-74
2023/09/26 11:08:19;;;;;;;11.10;6.45;;;;;;;;;;5082191;28;20052;-74
2023/09/26 11:10:54;;;;;;;10.73;7.30;;;;;;;;;;5083706;28;20409;-74
2023/09/26 11:13:23;;;;;;;10.18;7.03;;;;;;;;;;5086651;28;20044;-74
2023/09/26 11:15:52;;;;;;;12.80;6.68;;;;;;;;;;5079781;28;20040;-74
2023/09/26 11:18:18;;;;;;;9.95;6.65;;;;;;;;;;5075774;28;20404;-74
2023/09/26 11:20:44;;;;;;;8.73;5.70;;;;;;;;;;5074128;28;20052;-74
2023/09/26 11:23:10;;;;;;;10.25;7.38;;;;;;;;;;5075161;28;20058;-74
2023/09/26 11:25:36;;;;;;;17.63;6.97;;;;;;;;;;5075712;28;20040;-74
2023/09/26 11:28:03;;;;;;;10.80;6.00;;;;;;;;;;5082117;28;20049;-77
2023/09/26 11:30:29;;;;;;;8.63;5.03;;;;;;;;;;5073989;28;20040;-74
2023/09/26 11:32:56;;;;;;;8.70;5.65;;;;;;;;;;5073718;28;20041;-74
2023/09/26 11:35:23;;;;;;;11.63;5.88;;;;;;;;;;5073829;28;20090;-74
2023/09/26 11:37:49;;;;;;;7.70;5.72;;;;;;;;;;5084169;28;20101;-74
2023/09/26 11:40:26;;;;;;;9.98;5.53;;;;;;;;;;5091007;28;20529;-75
2023/09/26 11:42:55;;;;;;;8.38;5.68;;;;;;;;;;5076676;28;20059;-75
2023/09/26 11:45:24;;;;;;;10.48;5.60;;;;;;;;;;5089601;28;20052;-74
2023/09/26 11:47:51;;;;;;;9.65;5.15;;;;;;;;;;5078039;28;20103;-74
2023/09/26 11:50:17;;;;;;;8.88;5.03;;;;;;;;;;5076515;28;20060;-74
2023/09/26 11:52:43;;;;;;;7.70;5.47;;;;;;;;;;5071908;28;20036;-74
2023/09/26 11:55:09;;;;;;;10.50;5.00;;;;;;;;;;5073435;28;20059;-74
2023/09/26 11:57:36;;;;;;;9.43;4.97;;;;;;;;;;5074574;28;20399;-74
2023/09/26 12:00:06;;;;;;;9.30;4.68;;;;;;;;;;5077555;28;20075;-74
2023/09/26 12:02:32;;;;;;;9.35;5.45;;;;;;;;;;5093570;28;20083;-74
2023/09/26 12:04:58;;;;;;;9.00;5.10;;;;;;;;;;5093653;28;20062;-74
2023/09/26 12:07:25;;;;;;;11.27;5.55;;;;;;;;;;5078276;28;20053;-74
2023/09/26 12:09:51;;;;;;;10.27;5.38;;;;;;;;;;5076426;28;20064;-74
2023/09/26 12:12:17;;;;;;;12.32;5.90;;;;;;;;;;5076967;28;20426;-74
2023/09/26 12:14:46;;;;;;;8.30;5.30;;;;;;;;;;5082684;28;20462;-74
2023/09/26 12:17:12;;;;;;;11.05;5.05;;;;;;;;;;5089881;28;20523;-68
2023/09/26 12:19:38;;;;;;;23.98;10.15;;;;;;;;;;5079205;28;20046;-68
2023/09/26 12:22:04;;;;;;;21.73;8.45;;;;;;;;;;5082725;28;20052;-68
2023/09/26 12:24:30;;;;;;;8.95;5.10;;;;;;;;;;5085429;28;20048;-68
2023/09/26 12:26:56;;;;;;;7.97;4.65;;;;;;;;;;5074317;28;20074;-67
2023/09/26 12:29:22;;;;;;;8.48;3.88;;;;;;;;;;5072670;28;20565;-68
2023/09/26 12:31:49;;;;;;;7.80;4.20;;;;;;;;;;5072495;28;20499;-68
2023/09/26 12:34:15;;;;;;;8.32;4.03;;;;;;;;;;5072396;28;20086;-68
2023/09/26 12:36:41;;;;;;;8.02;3.72;;;;;;;;;;5082858;28;20059;-68
2023/09/26 12:39:07;;;;;;;7.28;3.70;;;;;;;;;;5080892;28;20405;-67
2023/09/26 12:41:34;;;;;;;7.40;3.70;;;;;;;;;;5080629;28;20048;-73
2023/09/26 12:44:00;;;;;;;11.73;4.20;;;;;;;;;;5085413;28;20043;-66
2023/09/26 12:46:26;;;;;;;9.05;3.80;;;;;;;;;;5084294;28;20040;-76
2023/09/26 12:48:52;;;;;;;10.23;3.70;;;;;;;;;;5073992;28;20123;-76
2023/09/26 12:51:18;;;;;;;10.18;3.83;;;;;;;;;;5092841;28;20406;-77
2023/09/26 12:53:45;;;;;;;6.75;3.33;;;;;;;;;;5077857;28;20052;-77
2023/09/26 12:56:11;;;;;;;6.20;3.33;;;;;;;;;;5082285;28;20039;-76
2023/09/26 12:58:37;;;;;;;7.65;3.10;;;;;;;;;;5092708;28;20393;-76
2023/09/26 13:01:03;;;;;;;7.90;3.38;;;;;;;;;;5092262;28;20048;-76
2023/09/26 13:03:29;;;;;;;6.90;3.05;;;;;;;;;;5089157;28;20048;-77
2023/09/26 13:05:55;;;;;;;7.70;3.30;;;;;;;;;;5078536;28;20075;-77
2023/09/26 13:08:21;;;;;;;5.97;3.03;;;;;;;;;;5078636;28;20415;-76
2023/09/26 13:10:47;;;;;;;7.15;3.50;;;;;;;;;;5073535;28;20048;-75
2023/09/26 13:13:13;;;;;;;8.20;3.55;;;;;;;;;;5074723;28;20380;-77
2023/09/26 13:15:39;;;;;;;6.22;2.97;;;;;;;;;;5076691;28;20036;-75
2023/09/26 13:18:06;;;;;;;6.82;3.40;;;;;;;;;;5082826;28;20054;-76
2023/09/26 13:20:32;;;;;;;8.63;3.20;;;;;;;;;;5090742;28;20131;-77
2023/09/26 13:22:59;;;;;;;7.97;3.20;;;;;;;;;;5071632;28;20518;-77
2023/09/26 13:25:25;;;;;;;7.43;3.08;;;;;;;;;;5088277;28;20044;-76
2023/09/26 13:27:51;;;;;;;8.45;3.30;;;;;;;;;;5087436;28;20044;-77
2023/09/26 13:30:17;;;;;;;6.38;2.88;;;;;;;;;;5071963;28;20494;-77
2023/09/26 13:32:43;;;;;;;8.93;3.17;;;;;;;;;;5083991;28;20040;-76
2023/09/26 13:35:09;;;;;;;7.35;2.80;;;;;;;;;;5082850;28;20045;-77
2023/09/26 13:37:36;;;;;;;6.57;3.10;;;;;;;;;;5073671;28;20143;-77
2023/09/26 13:40:04;;;;;;;7.15;3.30;;;;;;;;;;5072837;28;20048;-78
2023/09/26 13:42:30;;;;;;;7.78;3.20;;;;;;;;;;5089490;28;20040;-77
2023/09/26 13:44:56;;;;;;;8.27;3.28;;;;;;;;;;5088344;28;20075;-77
2023/09/26 13:47:22;;;;;;;7.20;3.15;;;;;;;;;;5072298;28;20053;-77
2023/09/26 13:49:49;;;;;;;7.75;3.17;;;;;;;;;;5073177;28;20455;-77
2023/09/26 13:52:15;;;;;;;7.85;3.60;;;;;;;;;;5072842;28;20123;-77
2023/09/26 13:54:41;;;;;;;6.47;3.28;;;;;;;;;;5072792;28;20068;-77
2023/09/26 13:57:08;;;;;;;7.65;3.50;;;;;;;;;;5081241;28;20048;-77
2023/09/26 13:59:34;;;;;;;8.48;3.47;;;;;;;;;;5089714;28;20402;-78
2023/09/26 14:02:00;;;;;;;6.28;3.38;;;;;;;;;;5077377;28;20157;-77
2023/09/26 14:04:26;;;;;;;8.48;3.40;;;;;;;;;;5072748;28;20757;-77
2023/09/26 14:06:53;;;;;;;7.82;3.70;;;;;;;;;;5086322;28;20048;-77
2023/09/26 14:09:19;;;;;;;7.63;3.80;;;;;;;;;;5091754;28;20426;-77
2023/09/26 14:11:45;;;;;;;6.57;3.92;;;;;;;;;;5087624;28;20053;-77
2023/09/26 14:14:11;;;;;;;9.43;3.55;;;;;;;;;;5088161;28;20045;-78
2023/09/26 14:16:38;;;;;;;6.80;3.33;;;;;;;;;;5084518;28;20066;-77
2023/09/26 14:19:04;;;;;;;7.40;3.47;;;;;;;;;;5084987;28;20054;-77
2023/09/26 14:21:30;;;;;;;7.07;3.45;;;;;;;;;;5079367;28;20044;-78
2023/09/26 14:23:56;;;;;;;7.65;4.03;;;;;;;;;;5080539;28;20041;-78
2023/09/26 14:26:25;;;;;;;9.60;4.10;;;;;;;;;;5093082;28;20048;-77